Terminal Aerodrome Forecast
Issued by NWS

Home | Current Version | Previous Version | Text Only | Print | Product List | Glossary On
Versions: 1 2 3 4 5 6 7 8 9 10 11 12 13 14 15 16 17 18 19
000
FTUS41 KBOX 242326
TAFFMH
TAF
KFMH 242326Z 2500/2524 30008KT P6SM OVC020
     FM250400 32007KT P6SM OVC030
     FM250600 32006KT P6SM BKN040
     FM250900 31005KT P6SM SCT090
     FM251800 25009KT P6SM FEW200=

USA.gov is the U.S. government's official web portal to all federal, state and local government web resources and services.